Time;durP1;ratioP1;P1;durP2;ratioP2;P2;SDS_P1;SDS_P2;PMS_P1;PMS_P2;Temp;Humidity;BMP_temperature;BMP_pressure;BME280_temperature;BME280_humidity;BME280_pressure;Samples;Min_cycle;Max_cycle;Signal;HPM_P1;HPM_P2
2022/04/17 00:00:14;;;;;;;5.43;4.47;;;;;19.10;101952.00;;;;2087159;28;20236;-52
2022/04/17 00:01:14;;;;;;;4.50;4.10;;;;;19.10;101953.00;;;;2087404;28;20221;-48
2022/04/17 00:02:15;;;;;;;4.70;4.30;;;;;19.10;101949.00;;;;2088170;28;20209;-47
2022/04/17 00:03:15;;;;;;;4.30;3.90;;;;;19.10;101949.00;;;;2088070;28;20201;-49
2022/04/17 00:04:16;;;;;;;4.33;3.83;;;;;19.10;101951.00;;;;2088090;28;20254;-49
2022/04/17 00:05:16;;;;;;;4.60;4.20;;;;;19.10;101949.00;;;;2087835;28;20205;-45
2022/04/17 00:06:17;;;;;;;4.90;4.50;;;;;19.10;101951.00;;;;2087616;28;20690;-47
2022/04/17 00:07:17;;;;;;;5.70;5.20;;;;;19.10;101948.00;;;;2087889;28;20274;-46
2022/04/17 00:08:18;;;;;;;4.70;4.30;;;;;19.10;101950.00;;;;2088085;28;20972;-46
2022/04/17 00:09:18;;;;;;;5.07;4.60;;;;;19.10;101963.00;;;;2087271;28;20594;-47
2022/04/17 00:10:18;;;;;;;4.80;4.40;;;;;19.10;101949.00;;;;2087288;28;20696;-45
2022/04/17 00:11:19;;;;;;;4.43;4.10;;;;;19.10;101947.00;;;;2088282;28;20677;-47
2022/04/17 00:12:23;;;;;;;4.50;4.20;;;;;19.10;101950.00;;;;2088037;28;20635;-46
2022/04/17 00:13:25;;;;;;;4.30;3.90;;;;;19.10;101954.00;;;;2088074;28;20224;-47
2022/04/17 00:14:25;;;;;;;4.65;4.25;;;;;19.10;101946.00;;;;2087995;28;20743;-46
2022/04/17 00:15:25;;;;;;;4.70;4.30;;;;;19.10;101944.00;;;;2086890;28;20255;-47
2022/04/17 00:16:26;;;;;;;4.90;4.40;;;;;19.10;101941.00;;;;2088401;28;20299;-47
2022/04/17 00:17:26;;;;;;;5.30;4.80;;;;;19.10;101945.00;;;;2087843;28;20596;-47
2022/04/17 00:18:27;;;;;;;4.40;4.10;;;;;19.10;101940.00;;;;2088097;28;20205;-46
2022/04/17 00:19:27;;;;;;;5.37;4.97;;;;;19.10;101945.00;;;;2088085;28;20220;-47
2022/04/17 00:20:27;;;;;;;5.07;4.57;;;;;19.10;101945.00;;;;2088158;28;20236;-47
2022/04/17 00:21:28;;;;;;;4.43;4.03;;;;;19.10;101942.00;;;;2088071;28;20221;-47
2022/04/17 00:22:28;;;;;;;4.53;4.13;;;;;19.10;101947.00;;;;2088296;28;20214;-47
2022/04/17 00:23:29;;;;;;;5.13;4.73;;;;;19.10;101949.00;;;;2088208;28;20244;-47
2022/04/17 00:24:29;;;;;;;5.00;4.50;;;;;19.10;101945.00;;;;2087808;28;20214;-46
2022/04/17 00:25:29;;;;;;;4.80;4.40;;;;;19.10;101932.00;;;;2087217;28;20785;-46
2022/04/17 00:26:30;;;;;;;5.00;4.60;;;;;19.10;101934.00;;;;2088107;28;20271;-47
2022/04/17 00:27:30;;;;;;;5.00;4.60;;;;;19.10;101933.00;;;;2087528;28;20227;-47
2022/04/17 00:28:30;;;;;;;4.93;4.53;;;;;19.10;101936.00;;;;2088224;28;20233;-47
2022/04/17 00:29:31;;;;;;;4.90;4.27;;;;;19.10;101926.00;;;;2087754;28;20209;-46
2022/04/17 00:30:31;;;;;;;4.47;4.07;;;;;19.10;101933.00;;;;2087690;28;20205;-46
2022/04/17 00:31:31;;;;;;;5.33;4.83;;;;;19.10;101930.00;;;;2087837;28;20224;-46
2022/04/17 00:32:32;;;;;;;4.77;4.37;;;;;19.10;101930.00;;;;2088003;28;20300;-46
2022/04/17 00:33:32;;;;;;;5.07;4.67;;;;;19.10;101930.00;;;;2088182;28;20216;-46
2022/04/17 00:34:33;;;;;;;4.53;4.07;;;;;19.10;101930.00;;;;2087908;28;20259;-46
2022/04/17 00:35:34;;;;;;;4.90;4.50;;;;;19.10;101929.00;;;;2087222;28;20299;-47
2022/04/17 00:36:34;;;;;;;4.90;4.50;;;;;19.10;101921.00;;;;2087932;28;20270;-46
2022/04/17 00:37:34;;;;;;;4.80;4.40;;;;;19.10;101928.00;;;;2087743;28;20204;-47
2022/04/17 00:38:35;;;;;;;4.60;4.20;;;;;19.10;101923.00;;;;2088087;28;20287;-47
2022/04/17 00:39:35;;;;;;;4.13;3.83;;;;;19.10;101921.00;;;;2085099;28;20205;-46
2022/04/17 00:40:35;;;;;;;4.93;4.47;;;;;19.10;101921.00;;;;2070621;28;20214;-47
2022/04/17 00:41:36;;;;;;;4.93;4.47;;;;;19.10;101920.00;;;;2078736;28;20221;-46
2022/04/17 00:42:37;;;;;;;5.00;4.60;;;;;19.10;101918.00;;;;2079789;28;20233;-46
2022/04/17 00:43:47;;;;;;;4.45;4.05;;;;;19.00;101918.00;;;;2083474;28;20212;-47
2022/04/17 00:44:48;;;;;;;4.38;3.97;;;;;19.10;101920.00;;;;2082953;28;20225;-46
2022/04/17 00:45:48;;;;;;;4.30;3.93;;;;;19.10;101915.00;;;;2086909;28;20212;-46
2022/04/17 00:46:48;;;;;;;4.70;4.17;;;;;18.70;101915.00;;;;2087637;28;20243;-47
2022/04/17 00:47:49;;;;;;;5.07;4.60;;;;;19.10;101914.00;;;;2087190;28;20236;-46
2022/04/17 00:48:49;;;;;;;5.30;4.80;;;;;19.10;101912.00;;;;2087493;28;20209;-46
2022/04/17 00:49:49;;;;;;;4.70;4.30;;;;;19.10;101909.00;;;;2087762;28;20631;-46
2022/04/17 00:50:51;;;;;;;4.80;4.40;;;;;19.10;101912.00;;;;2087604;28;20370;-46
2022/04/17 00:51:51;;;;;;;4.90;4.50;;;;;19.10;101902.00;;;;2087885;28;20244;-47
2022/04/17 00:52:51;;;;;;;4.80;4.40;;;;;19.10;101904.00;;;;2086561;28;20576;-52
2022/04/17 00:53:53;;;;;;;4.57;4.17;;;;;19.10;101904.00;;;;2086981;28;20235;-48
2022/04/17 00:54:54;;;;;;;4.95;4.55;;;;;18.80;101903.00;;;;2087537;28;20685;-47
2022/04/17 00:55:54;;;;;;;5.28;4.78;;;;;19.10;101906.00;;;;2086137;28;20255;-47
2022/04/17 00:56:54;;;;;;;4.90;4.50;;;;;19.10;101910.00;;;;2077658;28;20312;-47
2022/04/17 00:57:54;;;;;;;4.87;4.30;;;;;19.10;101902.00;;;;2075246;28;20279;-47
2022/04/17 00:58:55;;;;;;;4.73;4.33;;;;;19.10;101912.00;;;;2078172;28;20224;-47
2022/04/17 00:59:55;;;;;;;4.80;4.40;;;;;19.10;101909.00;;;;2085830;28;20213;-47
2022/04/17 01:00:55;;;;;;;4.97;4.57;;;;;19.00;101912.00;;;;2086131;28;20221;-47
2022/04/17 01:01:56;;;;;;;5.30;4.90;;;;;19.10;101906.00;;;;2086303;28;20241;-47
2022/04/17 01:02:56;;;;;;;4.70;4.30;;;;;19.00;101911.00;;;;2085441;28;20646;-47
2022/04/17 01:03:56;;;;;;;4.80;4.40;;;;;19.10;101909.00;;;;2077908;28;20249;-47
2022/04/17 01:04:57;;;;;;;4.80;4.30;;;;;19.00;101908.00;;;;2078042;28;20286;-47
2022/04/17 01:05:58;;;;;;;4.90;4.50;;;;;19.10;101896.00;;;;2077871;28;20225;-47
2022/04/17 01:06:58;;;;;;;4.55;4.15;;;;;19.00;101905.00;;;;2095074;28;20208;-47
2022/04/17 01:07:59;;;;;;;4.97;4.47;;;;;19.00;101903.00;;;;2095132;28;20208;-47
2022/04/17 01:09:00;;;;;;;4.87;4.47;;;;;19.00;101899.00;;;;2085986;28;20221;-47
2022/04/17 01:10:00;;;;;;;4.90;4.40;;;;;19.00;101899.00;;;;2086521;28;20607;-47
2022/04/17 01:11:00;;;;;;;4.60;4.20;;;;;19.00;101887.00;;;;2086807;28;20212;-47
2022/04/17 01:12:01;;;;;;;4.93;4.53;;;;;19.00;101901.00;;;;2078636;28;20248;-47
2022/04/17 01:13:04;;;;;;;4.63;4.23;;;;;19.10;101901.00;;;;2070165;28;20222;-47
2022/04/17 01:14:05;;;;;;;4.28;3.92;;;;;19.00;101899.00;;;;2085370;28;20227;-47
2022/04/17 01:15:06;;;;;;;4.45;4.13;;;;;19.00;101894.00;;;;2085904;28;20209;-47
2022/04/17 01:16:07;;;;;;;4.50;4.10;;;;;19.00;101897.00;;;;2085542;28;20615;-47
2022/04/17 01:17:08;;;;;;;5.00;4.50;;;;;19.00;101893.00;;;;2087219;28;20219;-47
2022/04/17 01:18:08;;;;;;;4.70;4.30;;;;;19.00;101898.00;;;;2087138;28;20220;-48
2022/04/17 01:19:11;;;;;;;4.80;4.40;;;;;19.10;101898.00;;;;2086712;28;20213;-45
2022/04/17 01:20:11;;;;;;;5.60;4.45;;;;;19.00;101899.00;;;;2086642;28;20220;-45
2022/04/17 01:21:12;;;;;;;4.50;4.10;;;;;19.00;101902.00;;;;2086169;28;20647;-45
2022/04/17 01:22:12;;;;;;;4.43;4.03;;;;;19.00;101832.00;;;;2086297;28;20629;-45
2022/04/17 01:27:10;;;;;;;4.57;4.18;;;;;19.00;101889.00;;;;2086653;28;20677;-45
2022/04/17 01:28:10;;;;;;;4.90;4.50;;;;;19.00;101893.00;;;;2085993;28;20221;-47
2022/04/17 01:29:10;;;;;;;5.20;4.70;;;;;19.00;101894.00;;;;2086306;28;20213;-47
2022/04/17 01:30:11;;;;;;;4.90;4.50;;;;;19.00;101899.00;;;;2086877;28;20251;-47
2022/04/17 01:31:11;;;;;;;4.93;4.53;;;;;19.00;101894.00;;;;2086234;28;20220;-47
2022/04/17 01:32:12;;;;;;;5.10;4.60;;;;;19.00;101890.00;;;;2086926;28;20217;-46
2022/04/17 01:33:12;;;;;;;4.40;4.03;;;;;19.00;101892.00;;;;2086789;28;20267;-47
2022/04/17 01:34:16;;;;;;;4.60;4.20;;;;;19.00;101893.00;;;;2086502;28;20220;-47
2022/04/17 01:35:16;;;;;;;4.80;4.40;;;;;19.00;101892.00;;;;2086749;28;20235;-47
2022/04/17 01:36:16;;;;;;;4.73;4.20;;;;;19.00;101894.00;;;;2085937;28;20303;-47
2022/04/17 01:37:20;;;;;;;5.10;4.70;;;;;19.00;101895.00;;;;2080308;28;20260;-47
2022/04/17 01:38:20;;;;;;;4.80;4.40;;;;;19.00;101891.00;;;;2078648;28;20217;-47
2022/04/17 01:39:20;;;;;;;5.23;4.73;;;;;19.00;101892.00;;;;2078585;28;20578;-46
2022/04/17 01:40:21;;;;;;;5.17;4.77;;;;;19.00;101890.00;;;;2078015;28;20690;-46
2022/04/17 01:41:21;;;;;;;4.70;4.30;;;;;19.00;101892.00;;;;2085045;28;20213;-46
2022/04/17 01:42:21;;;;;;;4.60;4.20;;;;;19.00;101890.00;;;;2086813;28;20243;-47
2022/04/17 01:43:22;;;;;;;4.77;4.37;;;;;19.00;101891.00;;;;2086963;28;20204;-46
2022/04/17 01:44:23;;;;;;;5.13;4.67;;;;;19.00;101895.00;;;;2086304;28;20215;-46
2022/04/17 01:45:23;;;;;;;4.53;4.20;;;;;19.00;101893.00;;;;2085761;28;20213;-46
2022/04/17 01:46:23;;;;;;;4.67;4.27;;;;;19.00;101886.00;;;;2086942;28;20460;-46
2022/04/17 01:47:24;;;;;;;4.73;4.33;;;;;19.00;101884.00;;;;2086346;28;20216;-47
2022/04/17 01:48:24;;;;;;;4.60;4.20;;;;;19.00;101881.00;;;;2086621;28;20232;-47
2022/04/17 01:49:24;;;;;;;4.47;4.07;;;;;19.00;101883.00;;;;2086331;28;20262;-46
2022/04/17 01:50:27;;;;;;;5.13;4.73;;;;;19.00;101888.00;;;;2086893;28;20212;-46
2022/04/17 01:51:27;;;;;;;4.60;4.20;;;;;19.00;101884.00;;;;2086685;28;20205;-46
2022/04/17 01:52:27;;;;;;;5.00;4.60;;;;;19.00;101886.00;;;;2086868;28;20201;-47
2022/04/17 01:53:28;;;;;;;5.13;4.47;;;;;19.00;101882.00;;;;2085791;28;20212;-47
2022/04/17 01:54:28;;;;;;;5.17;4.67;;;;;19.00;101881.00;;;;2082834;28;20233;-46
2022/04/17 01:55:29;;;;;;;4.97;4.57;;;;;19.00;101889.00;;;;2077164;28;20216;-47
2022/04/17 01:56:29;;;;;;;4.57;4.20;;;;;19.00;101890.00;;;;2078370;28;20690;-46
2022/04/17 01:57:29;;;;;;;4.97;4.57;;;;;19.00;101886.00;;;;2078767;28;20224;-47
2022/04/17 01:58:30;;;;;;;4.60;4.30;;;;;19.00;101888.00;;;;2078575;28;20296;-47
2022/04/17 01:59:30;;;;;;;4.77;4.37;;;;;19.00;101887.00;;;;2078789;28;20213;-47
2022/04/17 02:00:30;;;;;;;4.83;4.43;;;;;19.00;101894.00;;;;2079190;28;20220;-46
2022/04/17 02:01:32;;;;;;;4.30;3.90;;;;;18.80;101888.00;;;;2079254;28;20264;-47
2022/04/17 02:02:33;;;;;;;4.68;4.28;;;;;19.00;101884.00;;;;2078266;28;20215;-47
2022/04/17 02:03:34;;;;;;;4.35;4.05;;;;;19.00;101884.00;;;;2078436;28;20209;-45
2022/04/17 02:04:36;;;;;;;4.60;4.20;;;;;19.00;101895.00;;;;2079002;28;20289;-47
2022/04/17 02:05:36;;;;;;;4.93;4.53;;;;;19.00;101882.00;;;;2077986;28;20210;-47
2022/04/17 02:06:39;;;;;;;4.63;4.23;;;;;19.00;101882.00;;;;2079299;28;20214;-47
2022/04/17 02:07:39;;;;;;;4.82;4.43;;;;;19.00;101882.00;;;;2078727;28;20569;-47
2022/04/17 02:08:40;;;;;;;5.03;4.63;;;;;18.70;101873.00;;;;2079257;28;20272;-47
2022/04/17 02:09:40;;;;;;;5.27;4.87;;;;;19.00;101878.00;;;;2078240;28;20316;-47
2022/04/17 02:10:41;;;;;;;4.97;4.57;;;;;19.00;101878.00;;;;2078505;28;20268;-46
2022/04/17 02:11:42;;;;;;;4.10;3.80;;;;;19.00;101882.00;;;;2079130;28;20598;-46
2022/04/17 02:12:42;;;;;;;4.80;4.40;;;;;19.00;101879.00;;;;2078710;28;20583;-47
2022/04/17 02:13:42;;;;;;;4.70;4.30;;;;;19.00;101876.00;;;;2079039;28;20301;-45
2022/04/17 02:14:43;;;;;;;4.60;4.20;;;;;19.00;101906.00;;;;2078982;28;20263;-47
2022/04/17 02:15:43;;;;;;;4.63;4.23;;;;;19.00;101884.00;;;;2078116;28;20683;-47
2022/04/17 02:16:43;;;;;;;5.00;4.60;;;;;19.00;101878.00;;;;2079175;28;20257;-46
2022/04/17 02:17:44;;;;;;;4.50;4.10;;;;;19.00;101874.00;;;;2079111;28;20205;-47
2022/04/17 02:18:47;;;;;;;4.90;4.50;;;;;19.00;101879.00;;;;2079129;28;20703;-46
2022/04/17 02:19:47;;;;;;;5.20;4.70;;;;;19.00;101886.00;;;;2079084;28;20219;-46
2022/04/17 02:20:48;;;;;;;4.77;4.37;;;;;19.00;101874.00;;;;2079044;28;20209;-47
2022/04/17 02:21:48;;;;;;;4.53;4.10;;;;;19.00;101873.00;;;;2085007;28;20247;-47
2022/04/17 02:22:48;;;;;;;5.07;4.57;;;;;19.00;101877.00;;;;2087202;28;20689;-47
2022/04/17 02:23:49;;;;;;;4.80;4.30;;;;;19.00;101865.00;;;;2087237;28;20225;-47
2022/04/17 02:24:49;;;;;;;4.90;4.30;;;;;19.00;101871.00;;;;2087377;28;20205;-47
2022/04/17 02:25:50;;;;;;;4.90;4.50;;;;;19.00;101870.00;;;;2086091;28;20713;-46
2022/04/17 02:26:50;;;;;;;4.80;4.40;;;;;19.00;101874.00;;;;2087113;28;20254;-47
2022/04/17 02:27:50;;;;;;;5.10;4.70;;;;;19.00;101864.00;;;;2087156;28;20208;-47
2022/04/17 02:28:51;;;;;;;5.33;4.60;;;;;19.00;101864.00;;;;2087283;28;20217;-47
2022/04/17 02:29:51;;;;;;;4.83;4.43;;;;;18.90;101861.00;;;;2087053;28;20240;-47
2022/04/17 02:30:51;;;;;;;4.70;4.40;;;;;18.90;101859.00;;;;2087095;28;20208;-45
2022/04/17 02:31:52;;;;;;;4.93;4.53;;;;;18.90;101859.00;;;;2086913;28;20243;-45
2022/04/17 02:32:52;;;;;;;4.60;4.20;;;;;19.00;101860.00;;;;2086954;28;20217;-47
2022/04/17 02:33:52;;;;;;;4.93;4.53;;;;;19.00;101873.00;;;;2081883;28;20217;-45
2022/04/17 02:34:53;;;;;;;5.10;4.70;;;;;18.90;101862.00;;;;2078811;28;20351;-45
2022/04/17 02:35:54;;;;;;;4.67;4.23;;;;;19.00;101861.00;;;;2077837;28;20570;-46
2022/04/17 02:36:54;;;;;;;4.83;4.33;;;;;19.00;101869.00;;;;2078271;28;20216;-45
2022/04/17 02:37:54;;;;;;;4.40;4.00;;;;;19.00;101861.00;;;;2078692;28;20301;-47
2022/04/17 02:38:55;;;;;;;5.10;4.60;;;;;19.00;101860.00;;;;2078799;28;20210;-45
2022/04/17 02:39:56;;;;;;;4.60;4.20;;;;;19.00;101864.00;;;;2078643;28;20213;-45
2022/04/17 02:40:56;;;;;;;5.10;4.60;;;;;19.00;101858.00;;;;2082707;28;20565;-45
2022/04/17 02:41:56;;;;;;;4.80;4.40;;;;;19.00;101852.00;;;;2086718;28;20225;-47
2022/04/17 02:42:58;;;;;;;4.90;4.50;;;;;19.00;101852.00;;;;2086492;28;20222;-45
2022/04/17 02:43:58;;;;;;;5.00;4.50;;;;;19.00;101861.00;;;;2086046;28;20221;-45
2022/04/17 02:44:58;;;;;;;4.47;4.07;;;;;19.00;101862.00;;;;2086094;28;20330;-49
2022/04/17 02:45:59;;;;;;;4.60;4.20;;;;;19.00;101853.00;;;;2085899;28;20216;-45
2022/04/17 02:48:19;;;;;;;5.30;4.80;;;;;19.00;101859.00;;;;2086750;28;20212;-45
2022/04/17 02:49:20;;;;;;;4.90;4.43;;;;;19.00;101856.00;;;;2086791;28;20224;-45
2022/04/17 02:50:22;;;;;;;4.50;4.10;;;;;19.00;101858.00;;;;2086992;28;20209;-47
2022/04/17 02:51:22;;;;;;;4.57;4.18;;;;;19.00;101854.00;;;;2078641;28;20675;-45
2022/04/17 02:52:23;;;;;;;4.50;4.10;;;;;19.00;101851.00;;;;2078755;28;20213;-47
2022/04/17 02:53:24;;;;;;;4.50;4.13;;;;;19.00;101857.00;;;;2078383;28;20214;-46
2022/04/17 02:54:25;;;;;;;4.60;4.10;;;;;19.00;101859.00;;;;2078433;28;20213;-46
2022/04/17 02:55:25;;;;;;;5.00;4.40;;;;;19.00;101855.00;;;;2078702;28;20289;-46
2022/04/17 02:56:26;;;;;;;4.67;4.27;;;;;18.90;101857.00;;;;2086797;28;20288;-45
2022/04/17 02:57:26;;;;;;;4.67;4.23;;;;;18.90;101859.00;;;;2088042;28;20221;-45
2022/04/17 02:58:26;;;;;;;4.40;4.00;;;;;18.90;101860.00;;;;2088560;28;20213;-44
2022/04/17 02:59:27;;;;;;;4.60;4.20;;;;;19.00;101858.00;;;;2080245;28;20621;-47
2022/04/17 03:00:27;;;;;;;4.73;4.03;;;;;18.90;101877.00;;;;2080726;28;20201;-47
2022/04/17 03:05:36;;;;;;;4.97;4.57;;;;;19.00;101851.00;;;;2086955;28;20208;-48
2022/04/17 03:06:37;;;;;;;4.40;4.00;;;;;18.90;101853.00;;;;2088130;28;20687;-47
2022/04/17 03:07:38;;;;;;;4.95;4.45;;;;;18.90;101852.00;;;;2088324;28;20262;-47
2022/04/17 03:08:41;;;;;;;4.33;3.93;;;;;18.90;101855.00;;;;2088473;28;20743;-47
2022/04/17 03:09:41;;;;;;;4.72;4.32;;;;;18.90;101856.00;;;;2088235;28;20614;-49
2022/04/17 03:10:43;;;;;;;4.80;4.40;;;;;18.90;101856.00;;;;2088437;28;20233;-48
2022/04/17 03:11:43;;;;;;;5.00;4.50;;;;;18.90;101861.00;;;;2088288;28;20975;-47
2022/04/17 03:12:43;;;;;;;4.87;4.47;;;;;18.90;101870.00;;;;2088116;28;20220;-47
2022/04/17 03:13:44;;;;;;;4.77;4.37;;;;;18.90;101853.00;;;;2088401;28;20228;-47
2022/04/17 03:14:46;;;;;;;4.60;4.13;;;;;18.90;101862.00;;;;2088373;28;20209;-47
2022/04/17 03:15:46;;;;;;;4.50;4.10;;;;;18.90;101853.00;;;;2087443;28;20687;-48
2022/04/17 03:16:46;;;;;;;4.77;4.20;;;;;18.90;101852.00;;;;2088324;28;20216;-47
2022/04/17 03:17:47;;;;;;;4.20;3.80;;;;;18.90;101856.00;;;;2087206;28;20220;-47
2022/04/17 03:18:47;;;;;;;4.70;4.20;;;;;18.90;101853.00;;;;2088326;28;20244;-47
2022/04/17 03:19:47;;;;;;;4.80;4.43;;;;;18.90;101851.00;;;;2088303;28;20225;-47
2022/04/17 03:20:48;;;;;;;4.87;4.37;;;;;18.90;101855.00;;;;2088073;28;20717;-47
2022/04/17 03:21:48;;;;;;;5.10;3.97;;;;;18.90;101847.00;;;;2085024;28;21024;-47
2022/04/17 03:22:49;;;;;;;4.73;4.33;;;;;18.90;101845.00;;;;2080197;28;20682;-47
2022/04/17 03:23:49;;;;;;;4.40;4.10;;;;;18.90;101848.00;;;;2079408;28;20217;-47
2022/04/17 03:24:50;;;;;;;4.27;3.87;;;;;18.90;101848.00;;;;2079341;28;20222;-47
2022/04/17 03:25:50;;;;;;;3.83;3.53;;;;;18.90;101843.00;;;;2078911;28;20742;-47
2022/04/17 03:26:50;;;;;;;4.37;4.00;;;;;18.90;101836.00;;;;2079101;28;20694;-47
2022/04/17 03:27:51;;;;;;;4.37;3.97;;;;;18.90;101837.00;;;;2079266;28;20288;-47
2022/04/17 03:28:55;;;;;;;4.23;3.83;;;;;18.90;101842.00;;;;2079956;28;20576;-47
2022/04/17 03:29:55;;;;;;;4.50;4.10;;;;;18.90;101840.00;;;;2080038;28;20564;-47
2022/04/17 03:30:56;;;;;;;4.60;4.20;;;;;18.90;101847.00;;;;2080146;28;20212;-46
2022/04/17 03:31:56;;;;;;;3.77;3.47;;;;;18.90;101839.00;;;;2080032;28;20210;-46
2022/04/17 03:32:57;;;;;;;4.00;3.70;;;;;18.90;101835.00;;;;2080153;28;20240;-47
2022/04/17 03:33:57;;;;;;;4.13;3.73;;;;;18.90;101837.00;;;;2079360;28;21059;-47
2022/04/17 03:34:58;;;;;;;4.27;3.87;;;;;18.90;101846.00;;;;2079089;28;20234;-47
2022/04/17 03:35:58;;;;;;;4.10;3.70;;;;;18.90;101847.00;;;;2078308;28;20214;-47
2022/04/17 03:36:58;;;;;;;4.07;3.67;;;;;18.90;101846.00;;;;2079365;28;20214;-47
2022/04/17 03:38:00;;;;;;;4.20;3.80;;;;;18.90;101833.00;;;;2079894;28;20217;-47
2022/04/17 03:39:00;;;;;;;4.30;3.90;;;;;18.90;101838.00;;;;2079996;28;20217;-47
2022/04/17 03:40:01;;;;;;;4.53;4.13;;;;;18.90;101844.00;;;;2079740;28;20241;-47
2022/04/17 03:41:01;;;;;;;4.47;4.10;;;;;18.90;101842.00;;;;2079570;28;20222;-47
2022/04/17 03:42:01;;;;;;;4.60;4.20;;;;;18.90;101840.00;;;;2080052;28;20221;-46
2022/04/17 03:43:02;;;;;;;4.03;3.70;;;;;18.90;101843.00;;;;2079894;28;20233;-47
2022/04/17 03:44:03;;;;;;;4.60;4.20;;;;;18.90;101847.00;;;;2080135;28;20221;-47
2022/04/17 03:45:08;;;;;;;3.95;3.65;;;;;18.90;101836.00;;;;2079727;28;20228;-47
2022/04/17 03:46:08;;;;;;;4.15;3.75;;;;;18.90;101844.00;;;;2079100;28;20636;-47
2022/04/17 03:47:09;;;;;;;4.50;4.20;;;;;18.90;101839.00;;;;2079833;28;20268;-47
2022/04/17 03:48:09;;;;;;;4.07;3.67;;;;;18.90;101844.00;;;;2079129;28;20229;-47
2022/04/17 03:49:09;;;;;;;3.90;3.60;;;;;18.90;101843.00;;;;2078609;28;20220;-47
2022/04/17 03:50:10;;;;;;;4.27;3.97;;;;;18.90;101842.00;;;;2079256;28;20222;-47
2022/04/17 03:51:10;;;;;;;4.33;3.90;;;;;18.90;101844.00;;;;2079511;28;20248;-47
2022/04/17 03:52:11;;;;;;;3.80;3.50;;;;;18.90;101838.00;;;;2079515;28;20270;-47
2022/04/17 03:53:11;;;;;;;4.00;3.70;;;;;18.90;101836.00;;;;2079483;28;20236;-47
2022/04/17 03:54:12;;;;;;;3.70;3.40;;;;;18.90;101835.00;;;;2079285;28;20228;-47
2022/04/17 03:55:12;;;;;;;3.97;3.67;;;;;18.90;101837.00;;;;2079174;28;20241;-47
2022/04/17 03:56:12;;;;;;;4.27;3.93;;;;;18.90;101833.00;;;;2078631;28;20221;-47
2022/04/17 03:57:13;;;;;;;4.07;3.67;;;;;18.90;101829.00;;;;2079327;28;20325;-47
2022/04/17 03:58:13;;;;;;;3.67;3.37;;;;;18.90;101833.00;;;;2079464;28;20225;-47
2022/04/17 03:59:13;;;;;;;4.40;4.00;;;;;18.90;101840.00;;;;2079171;28;20221;-47
2022/04/17 04:00:14;;;;;;;4.17;3.77;;;;;18.90;101830.00;;;;2079348;28;20252;-47
2022/04/17 04:01:15;;;;;;;4.30;3.90;;;;;18.90;101833.00;;;;2079031;28;20221;-47
2022/04/17 04:02:15;;;;;;;4.00;3.70;;;;;18.90;101835.00;;;;2078718;28;20217;-46
2022/04/17 04:03:15;;;;;;;4.20;3.80;;;;;18.90;101835.00;;;;2078725;28;20213;-47
2022/04/17 04:04:16;;;;;;;3.83;3.47;;;;;18.90;101831.00;;;;2079097;28;20770;-47
2022/04/17 04:05:18;;;;;;;3.80;3.50;;;;;18.90;101828.00;;;;2079168;28;20300;-47
2022/04/17 04:06:18;;;;;;;4.03;3.65;;;;;18.90;101833.00;;;;2078652;28;20263;-46
2022/04/17 04:07:19;;;;;;;3.80;3.47;;;;;18.60;101832.00;;;;2079052;28;20302;-47
2022/04/17 04:08:19;;;;;;;3.90;3.60;;;;;18.90;101824.00;;;;2079875;28;20210;-47
2022/04/17 04:09:20;;;;;;;4.23;3.83;;;;;18.90;101827.00;;;;2087251;28;20216;-47
2022/04/17 04:10:20;;;;;;;3.93;3.60;;;;;18.90;101826.00;;;;2086823;28;20217;-47
2022/04/17 04:11:20;;;;;;;3.97;3.67;;;;;18.90;101823.00;;;;2087000;28;20212;-51
2022/04/17 04:12:21;;;;;;;3.97;3.67;;;;;18.90;101826.00;;;;2087527;28;20742;-50
2022/04/17 04:13:21;;;;;;;3.93;3.63;;;;;18.90;101824.00;;;;2087497;28;20701;-47
2022/04/17 04:14:21;;;;;;;4.10;3.80;;;;;18.90;101822.00;;;;2087449;28;20229;-48
2022/04/17 04:15:22;;;;;;;3.63;3.33;;;;;18.90;101819.00;;;;2086851;28;20319;-48
2022/04/17 04:16:22;;;;;;;3.60;3.30;;;;;18.90;101810.00;;;;2086945;28;20213;-47
2022/04/17 04:17:22;;;;;;;4.07;3.70;;;;;18.90;101815.00;;;;2081661;28;20213;-47
2022/04/17 04:18:23;;;;;;;3.17;2.87;;;;;18.80;101810.00;;;;2087962;28;20354;-45
2022/04/17 04:19:23;;;;;;;3.67;3.37;;;;;18.90;101810.00;;;;2087632;28;20739;-46
2022/04/17 04:20:23;;;;;;;3.20;3.00;;;;;18.90;101807.00;;;;2087676;28;20768;-47
2022/04/17 04:21:24;;;;;;;4.03;3.73;;;;;18.90;101811.00;;;;2087648;28;20709;-46
2022/04/17 04:22:24;;;;;;;4.10;3.70;;;;;18.90;101806.00;;;;2087924;28;20751;-46
2022/04/17 04:23:25;;;;;;;3.50;3.23;;;;;18.90;101803.00;;;;2088074;28;20300;-47
2022/04/17 04:24:26;;;;;;;3.50;3.20;;;;;18.90;101799.00;;;;2086545;28;20223;-47
2022/04/17 04:25:26;;;;;;;4.00;3.70;;;;;18.90;101812.00;;;;2086853;28;20205;-46
2022/04/17 04:26:27;;;;;;;3.60;3.30;;;;;18.90;101803.00;;;;2087651;28;20217;-47
2022/04/17 04:28:50;;;;;;;3.80;3.40;;;;;18.90;101804.00;;;;2070614;28;20210;-47
2022/04/17 04:29:51;;;;;;;3.10;2.80;;;;;18.90;101809.00;;;;2075866;28;21046;-47
2022/04/17 04:30:51;;;;;;;3.77;3.47;;;;;18.90;101807.00;;;;2086898;28;20622;-47
2022/04/17 04:31:51;;;;;;;3.50;3.20;;;;;18.90;101807.00;;;;2079929;28;21044;-47
2022/04/17 04:32:56;;;;;;;3.90;3.40;;;;;18.90;101800.00;;;;2079453;28;20213;-47
2022/04/17 04:33:56;;;;;;;3.58;3.28;;;;;18.90;101800.00;;;;2086687;28;20220;-47
2022/04/17 04:35:00;;;;;;;4.03;3.70;;;;;18.90;101802.00;;;;2087075;28;20216;-45
2022/04/17 04:36:00;;;;;;;3.67;3.38;;;;;18.80;101801.00;;;;2086713;28;20223;-46
2022/04/17 04:37:01;;;;;;;3.50;3.20;;;;;18.80;101806.00;;;;2087588;28;20223;-46
2022/04/17 04:38:01;;;;;;;3.40;3.10;;;;;18.80;101799.00;;;;2086676;28;20262;-46
2022/04/17 04:39:02;;;;;;;3.67;3.27;;;;;18.90;101809.00;;;;2079374;28;20213;-47
2022/04/17 04:40:03;;;;;;;3.40;3.10;;;;;18.90;101806.00;;;;2079167;28;20282;-47
2022/04/17 04:41:03;;;;;;;3.87;3.30;;;;;18.90;101811.00;;;;2079384;28;20216;-47
2022/04/17 04:42:04;;;;;;;2.87;2.67;;;;;18.90;101808.00;;;;2079417;28;20221;-47
2022/04/17 04:43:04;;;;;;;3.40;3.10;;;;;18.90;101813.00;;;;2079241;28;20461;-46
2022/04/17 04:44:05;;;;;;;3.17;2.90;;;;;18.90;101803.00;;;;2079618;28;20218;-46
2022/04/17 04:46:24;;;;;;;3.90;3.45;;;;;18.80;101802.00;;;;2079412;28;20217;-46
2022/04/17 04:47:25;;;;;;;3.20;3.00;;;;;18.90;101804.00;;;;2079181;28;20638;-47
2022/04/17 04:49:54;;;;;;;3.10;2.90;;;;;18.90;101803.00;;;;2080823;27;20937;-46
2022/04/17 04:50:54;;;;;;;3.30;3.00;;;;;18.90;101804.00;;;;2079060;28;20232;-46
2022/04/17 04:51:55;;;;;;;3.30;3.00;;;;;18.80;101809.00;;;;2078052;28;20252;-47
2022/04/17 04:52:56;;;;;;;3.57;3.27;;;;;18.90;101803.00;;;;2081362;28;20221;-46
2022/04/17 04:53:56;;;;;;;3.30;3.07;;;;;18.80;101800.00;;;;2077772;28;20526;-46
2022/04/17 04:54:57;;;;;;;3.50;3.10;;;;;18.80;101788.00;;;;2081812;28;20252;-52
2022/04/17 04:55:57;;;;;;;3.10;2.80;;;;;18.90;101796.00;;;;2077281;28;20217;-48
2022/04/17 04:56:58;;;;;;;3.13;2.90;;;;;18.90;101796.00;;;;2077709;28;20304;-48
2022/04/17 04:58:01;;;;;;;3.47;3.17;;;;;18.80;101797.00;;;;2078070;28;20279;-46
2022/04/17 04:59:01;;;;;;;2.90;2.70;;;;;18.90;101800.00;;;;2078157;28;20210;-46
2022/04/17 05:00:06;;;;;;;3.67;3.27;;;;;18.90;101799.00;;;;2077396;28;20248;-47
2022/04/17 05:01:06;;;;;;;3.58;3.28;;;;;18.90;101803.00;;;;2077345;28;20226;-46
2022/04/17 05:02:07;;;;;;;2.90;2.70;;;;;18.80;101798.00;;;;2077903;28;20206;-46
2022/04/17 05:03:07;;;;;;;3.20;3.00;;;;;18.80;101803.00;;;;2076845;28;20252;-46
2022/04/17 05:04:08;;;;;;;3.10;2.90;;;;;18.80;101801.00;;;;2077383;28;20205;-46
2022/04/17 05:05:09;;;;;;;3.17;2.87;;;;;18.80;101796.00;;;;2077255;28;20456;-45
2022/04/17 05:06:09;;;;;;;3.07;2.83;;;;;18.80;101801.00;;;;2077343;28;20241;-46
2022/04/17 05:07:09;;;;;;;2.50;2.30;;;;;18.80;101796.00;;;;2077415;28;20638;-47
2022/04/17 05:08:10;;;;;;;3.10;2.80;;;;;18.90;101796.00;;;;2077949;28;20210;-46
2022/04/17 05:09:10;;;;;;;2.70;2.50;;;;;18.90;101798.00;;;;2077932;28;20212;-47
2022/04/17 05:10:10;;;;;;;3.20;2.90;;;;;18.80;101802.00;;;;2077662;28;20222;-45
2022/04/17 05:11:11;;;;;;;3.20;2.90;;;;;18.80;101799.00;;;;2071650;28;20661;-45
2022/04/17 05:12:11;;;;;;;3.37;3.07;;;;;18.80;101795.00;;;;2080380;28;20244;-46
2022/04/17 05:13:11;;;;;;;3.17;2.90;;;;;18.80;101788.00;;;;2084433;28;20247;-47